sensor_id;sensor_type;location;lat;lon;timestamp;pressure;altitude;pressure_sealevel;temperature
48362;BMP280;34510;51.888;5.670;2022-09-21T00:01:57;102609.13;;;13.41
48362;BMP280;34510;51.888;5.670;2022-09-21T00:06:58;102610.28;;;13.63
48362;BMP280;34510;51.888;5.670;2022-09-21T00:12:00;102614.03;;;13.39
48362;BMP280;34510;51.888;5.670;2022-09-21T00:17:03;102613.34;;;13.37
48362;BMP280;34510;51.888;5.670;2022-09-21T00:22:04;102613.53;;;13.27
48362;BMP280;34510;51.888;5.670;2022-09-21T00:27:07;102607.72;;;13.45
48362;BMP280;34510;51.888;5.670;2022-09-21T00:32:09;102619.63;;;13.31
48362;BMP280;34510;51.888;5.670;2022-09-21T00:37:11;102613.72;;;13.10
48362;BMP280;34510;51.888;5.670;2022-09-21T00:42:18;102615.28;;;13.12
48362;BMP280;34510;51.888;5.670;2022-09-21T00:47:22;102613.00;;;13.16
48362;BMP280;34510;51.888;5.670;2022-09-21T00:52:28;102600.63;;;13.35
48362;BMP280;34510;51.888;5.670;2022-09-21T00:57:33;102604.66;;;13.24
48362;BMP280;34510;51.888;5.670;2022-09-21T01:02:36;102613.03;;;13.08
48362;BMP280;34510;51.888;5.670;2022-09-21T01:07:41;102609.91;;;13.02
48362;BMP280;34510;51.888;5.670;2022-09-21T01:34:11;102615.13;;;13.06
48362;BMP280;34510;51.888;5.670;2022-09-21T01:39:17;102613.72;;;12.93
48362;BMP280;34510;51.888;5.670;2022-09-21T01:44:24;102612.34;;;13.06
48362;BMP280;34510;51.888;5.670;2022-09-21T01:49:35;102618.78;;;12.74
48362;BMP280;34510;51.888;5.670;2022-09-21T01:54:45;102618.25;;;12.78
48362;BMP280;34510;51.888;5.670;2022-09-21T01:59:52;102614.59;;;12.78
48362;BMP280;34510;51.888;5.670;2022-09-21T02:04:54;102614.91;;;12.26
48362;BMP280;34510;51.888;5.670;2022-09-21T02:09:56;102612.44;;;12.15
48362;BMP280;34510;51.888;5.670;2022-09-21T02:14:59;102617.56;;;12.35
48362;BMP280;34510;51.888;5.670;2022-09-21T02:20:23;102614.72;;;12.19
48362;BMP280;34510;51.888;5.670;2022-09-21T02:30:54;102619.53;;;12.01
48362;BMP280;34510;51.888;5.670;2022-09-21T02:41:30;102610.72;;;11.71
48362;BMP280;34510;51.888;5.670;2022-09-21T02:46:52;102615.53;;;11.61
48362;BMP280;34510;51.888;5.670;2022-09-21T02:51:58;102615.13;;;11.48
48362;BMP280;34510;51.888;5.670;2022-09-21T02:57:01;102611.66;;;11.54
48362;BMP280;34510;51.888;5.670;2022-09-21T03:02:03;102610.09;;;11.52
48362;BMP280;34510;51.888;5.670;2022-09-21T03:07:07;102611.34;;;11.57
48362;BMP280;34510;51.888;5.670;2022-09-21T03:12:09;102608.69;;;11.48
48362;BMP280;34510;51.888;5.670;2022-09-21T03:17:11;102613.00;;;11.42
48362;BMP280;34510;51.888;5.670;2022-09-21T03:22:13;102612.88;;;11.18
48362;BMP280;34510;51.888;5.670;2022-09-21T03:27:17;102620.84;;;11.13
48362;BMP280;34510;51.888;5.670;2022-09-21T03:32:19;102626.72;;;11.09
48362;BMP280;34510;51.888;5.670;2022-09-21T03:37:21;102634.34;;;11.07
48362;BMP280;34510;51.888;5.670;2022-09-21T03:42:23;102628.84;;;11.16
48362;BMP280;34510;51.888;5.670;2022-09-21T03:47:25;102640.69;;;11.26
48362;BMP280;34510;51.888;5.670;2022-09-21T03:52:26;102635.84;;;11.28
48362;BMP280;34510;51.888;5.670;2022-09-21T03:57:28;102641.38;;;11.02
48362;BMP280;34510;51.888;5.670;2022-09-21T04:02:30;102639.81;;;10.99
48362;BMP280;34510;51.888;5.670;2022-09-21T04:07:33;102638.47;;;10.86
48362;BMP280;34510;51.888;5.670;2022-09-21T04:12:35;102647.28;;;10.81
48362;BMP280;34510;51.888;5.670;2022-09-21T04:17:38;102642.72;;;10.54
48362;BMP280;34510;51.888;5.670;2022-09-21T04:22:39;102642.34;;;10.49
48362;BMP280;34510;51.888;5.670;2022-09-21T04:27:44;102645.59;;;10.44
48362;BMP280;34510;51.888;5.670;2022-09-21T04:32:46;102647.06;;;10.21
48362;BMP280;34510;51.888;5.670;2022-09-21T04:37:48;102650.47;;;10.33
48362;BMP280;34510;51.888;5.670;2022-09-21T04:42:53;102640.50;;;10.40
48362;BMP280;34510;51.888;5.670;2022-09-21T04:47:55;102656.69;;;10.17
48362;BMP280;34510;51.888;5.670;2022-09-21T04:52:57;102658.72;;;10.25
48362;BMP280;34510;51.888;5.670;2022-09-21T04:57:58;102656.81;;;10.25
48362;BMP280;34510;51.888;5.670;2022-09-21T05:03:00;102665.44;;;10.22
48362;BMP280;34510;51.888;5.670;2022-09-21T05:08:02;102670.16;;;10.12
48362;BMP280;34510;51.888;5.670;2022-09-21T05:13:04;102676.88;;;10.09
48362;BMP280;34510;51.888;5.670;2022-09-21T05:18:05;102674.34;;;10.16
48362;BMP280;34510;51.888;5.670;2022-09-21T05:23:07;102673.91;;;9.93
48362;BMP280;34510;51.888;5.670;2022-09-21T05:28:09;102679.00;;;9.98
48362;BMP280;34510;51.888;5.670;2022-09-21T05:33:14;102679.59;;;10.19
48362;BMP280;34510;51.888;5.670;2022-09-21T05:38:18;102689.97;;;10.17
48362;BMP280;34510;51.888;5.670;2022-09-21T05:43:20;102692.72;;;10.27
48362;BMP280;34510;51.888;5.670;2022-09-21T05:48:39;102690.81;;;10.27
48362;BMP280;34510;51.888;5.670;2022-09-21T06:04:30;102703.84;;;10.44
48362;BMP280;34510;51.888;5.670;2022-09-21T06:09:32;102702.50;;;10.48
48362;BMP280;34510;51.888;5.670;2022-09-21T06:14:35;102714.94;;;10.44
48362;BMP280;34510;51.888;5.670;2022-09-21T06:19:37;102713.13;;;10.53
48362;BMP280;34510;51.888;5.670;2022-09-21T06:24:38;102707.09;;;10.75
48362;BMP280;34510;51.888;5.670;2022-09-21T06:29:40;102713.25;;;11.05
48362;BMP280;34510;51.888;5.670;2022-09-21T06:34:41;102709.38;;;11.16
48362;BMP280;34510;51.888;5.670;2022-09-21T06:39:43;102705.47;;;11.52
48362;BMP280;34510;51.888;5.670;2022-09-21T06:44:45;102705.56;;;11.94
48362;BMP280;34510;51.888;5.670;2022-09-21T06:49:47;102702.38;;;12.31
48362;BMP280;34510;51.888;5.670;2022-09-21T18:37:00;102510.16;;;13.06
48362;BMP280;34510;51.888;5.670;2022-09-21T18:47:41;102509.44;;;13.12
48362;BMP280;34510;51.888;5.670;2022-09-21T18:52:51;102506.47;;;13.22
48362;BMP280;34510;51.888;5.670;2022-09-21T18:57:57;102517.94;;;13.27
48362;BMP280;34510;51.888;5.670;2022-09-21T19:03:02;102518.09;;;13.25
48362;BMP280;34510;51.888;5.670;2022-09-21T19:14:08;102524.25;;;12.96
48362;BMP280;34510;51.888;5.670;2022-09-21T19:29:39;102524.53;;;13.34
48362;BMP280;34510;51.888;5.670;2022-09-21T19:34:42;102527.91;;;12.97
48362;BMP280;34510;51.888;5.670;2022-09-21T19:39:44;102527.75;;;12.82
48362;BMP280;34510;51.888;5.670;2022-09-21T19:45:00;102527.00;;;13.21
48362;BMP280;34510;51.888;5.670;2022-09-21T19:50:16;102532.28;;;12.75
48362;BMP280;34510;51.888;5.670;2022-09-21T19:55:19;102533.88;;;12.78
48362;BMP280;34510;51.888;5.670;2022-09-21T20:00:40;102529.28;;;13.09
48362;BMP280;34510;51.888;5.670;2022-09-21T20:05:50;102531.22;;;12.84
48362;BMP280;34510;51.888;5.670;2022-09-21T20:10:58;102542.38;;;12.84
48362;BMP280;34510;51.888;5.670;2022-09-21T20:16:22;102540.69;;;12.59
48362;BMP280;34510;51.888;5.670;2022-09-21T20:21:37;102537.53;;;12.70
48362;BMP280;34510;51.888;5.670;2022-09-21T20:26:39;102530.75;;;12.64
48362;BMP280;34510;51.888;5.670;2022-09-21T20:31:42;102530.94;;;12.63
48362;BMP280;34510;51.888;5.670;2022-09-21T20:36:43;102527.09;;;12.64
48362;BMP280;34510;51.888;5.670;2022-09-21T20:41:45;102536.16;;;12.50
48362;BMP280;34510;51.888;5.670;2022-09-21T20:46:47;102530.06;;;12.46
48362;BMP280;34510;51.888;5.670;2022-09-21T20:51:48;102530.59;;;12.50
48362;BMP280;34510;51.888;5.670;2022-09-21T20:56:50;102529.53;;;12.34
48362;BMP280;34510;51.888;5.670;2022-09-21T21:01:52;102522.59;;;12.38
48362;BMP280;34510;51.888;5.670;2022-09-21T21:06:55;102524.31;;;12.31
48362;BMP280;34510;51.888;5.670;2022-09-21T21:11:57;102528.84;;;12.24
48362;BMP280;34510;51.888;5.670;2022-09-21T21:17:00;102531.09;;;12.21
48362;BMP280;34510;51.888;5.670;2022-09-21T21:22:02;102529.00;;;12.15
48362;BMP280;34510;51.888;5.670;2022-09-21T21:27:15;102533.69;;;12.14
48362;BMP280;34510;51.888;5.670;2022-09-21T21:32:19;102526.72;;;12.02
48362;BMP280;34510;51.888;5.670;2022-09-21T21:37:24;102532.13;;;12.12
48362;BMP280;34510;51.888;5.670;2022-09-21T21:42:26;102531.44;;;12.10
48362;BMP280;34510;51.888;5.670;2022-09-21T21:47:30;102532.09;;;11.87
48362;BMP280;34510;51.888;5.670;2022-09-21T21:52:41;102526.72;;;11.94
48362;BMP280;34510;51.888;5.670;2022-09-21T21:57:45;102516.69;;;12.42
48362;BMP280;34510;51.888;5.670;2022-09-21T22:02:47;102522.91;;;12.03
48362;BMP280;34510;51.888;5.670;2022-09-21T22:07:49;102516.22;;;11.71
48362;BMP280;34510;51.888;5.670;2022-09-21T22:12:50;102506.91;;;11.97
48362;BMP280;34510;51.888;5.670;2022-09-21T22:17:52;102515.81;;;11.58
48362;BMP280;34510;51.888;5.670;2022-09-21T22:22:54;102515.78;;;12.09
48362;BMP280;34510;51.888;5.670;2022-09-21T22:27:55;102509.47;;;11.74
48362;BMP280;34510;51.888;5.670;2022-09-21T22:32:57;102519.72;;;11.73
48362;BMP280;34510;51.888;5.670;2022-09-21T22:37:59;102530.91;;;11.56
48362;BMP280;34510;51.888;5.670;2022-09-21T22:43:02;102524.50;;;11.63
48362;BMP280;34510;51.888;5.670;2022-09-21T22:48:03;102522.25;;;11.67
48362;BMP280;34510;51.888;5.670;2022-09-21T22:53:05;102529.69;;;11.50
48362;BMP280;34510;51.888;5.670;2022-09-21T22:58:07;102523.75;;;11.37
48362;BMP280;34510;51.888;5.670;2022-09-21T23:03:08;102521.00;;;11.45
48362;BMP280;34510;51.888;5.670;2022-09-21T23:08:11;102520.44;;;11.41
48362;BMP280;34510;51.888;5.670;2022-09-21T23:13:13;102511.22;;;11.33
48362;BMP280;34510;51.888;5.670;2022-09-21T23:18:16;102507.75;;;11.31
48362;BMP280;34510;51.888;5.670;2022-09-21T23:23:18;102511.88;;;11.27
48362;BMP280;34510;51.888;5.670;2022-09-21T23:28:20;102521.19;;;11.09
48362;BMP280;34510;51.888;5.670;2022-09-21T23:33:21;102512.94;;;11.26
48362;BMP280;34510;51.888;5.670;2022-09-21T23:38:23;102512.09;;;11.33
48362;BMP280;34510;51.888;5.670;2022-09-21T23:43:25;102503.19;;;11.22
48362;BMP280;34510;51.888;5.670;2022-09-21T23:48:27;102506.34;;;11.27
48362;BMP280;34510;51.888;5.670;2022-09-21T23:53:29;102500.75;;;11.19
48362;BMP280;34510;51.888;5.670;2022-09-21T23:58:32;102504.41;;;11.19
